Time;durP1;ratioP1;P1;durP2;ratioP2;P2;SDS_P1;SDS_P2;PMS_P1;PMS_P2;Temp;Humidity;BMP_temperature;BMP_pressure;BME280_temperature;BME280_humidity;BME280_pressure;Samples;Min_cycle;Max_cycle;Signal;HPM_P1;HPM_P2
2021/05/12 00:00:21;;;;;;;0.52;0.47;;;;;;;33.22;16.71;97368.75;5093795;28;20107;-85
2021/05/12 00:02:47;;;;;;;0.95;0.70;;;;;;;33.09;16.92;97368.47;5092698;28;20028;-85
2021/05/12 00:05:14;;;;;;;1.58;0.60;;;;;;;33.07;16.85;97364.59;5093045;28;20032;-85
2021/05/12 00:07:40;;;;;;;0.80;0.57;;;;;;;33.02;16.82;97365.34;5093616;28;20040;-85
2021/05/12 00:10:09;;;;;;;0.65;0.43;;;;;;;33.05;16.47;97365.06;5088929;28;20028;-85
2021/05/12 00:12:35;;;;;;;1.58;0.70;;;;;;;33.32;16.43;97367.22;5094139;28;20111;-85
2021/05/12 00:15:03;;;;;;;1.55;0.82;;;;;;;33.20;16.83;97353.50;5093001;28;20036;-85
2021/05/12 00:17:30;;;;;;;0.80;0.55;;;;;;;33.08;16.99;97351.91;5092509;28;20059;-85
2021/05/12 00:19:58;;;;;;;0.30;0.30;;;;;;;33.21;16.47;97352.22;5091976;28;20046;-85
2021/05/12 00:22:41;;;;;;;1.20;0.60;;;;;;;33.42;16.46;97353.53;5093344;28;20438;-85
2021/05/12 00:25:10;;;;;;;1.27;0.47;;;;;;;33.62;15.81;97344.00;5094054;28;20372;-85
2021/05/12 00:27:36;;;;;;;0.70;0.60;;;;;;;33.83;15.77;97353.84;5093745;28;20137;-85
2021/05/12 00:30:04;;;;;;;1.20;0.60;;;;;;;33.50;15.90;97348.88;5092678;28;20048;-85
2021/05/12 00:32:31;;;;;;;0.75;0.65;;;;;;;33.18;16.81;97354.00;5089410;28;20024;-85
2021/05/12 00:34:57;;;;;;;0.63;0.50;;;;;;;33.04;17.16;97351.38;5093127;28;20032;-85
2021/05/12 00:37:23;;;;;;;0.60;0.50;;;;;;;33.03;16.52;97361.97;5090504;28;20044;-85
2021/05/12 00:39:49;;;;;;;0.57;0.57;;;;;;;33.26;15.96;97360.72;5088429;28;20060;-85
2021/05/12 00:42:15;;;;;;;0.82;0.60;;;;;;;33.47;15.86;97360.53;5092398;28;20020;-86
2021/05/12 00:44:41;;;;;;;0.75;0.47;;;;;;;33.45;16.27;97363.88;5093735;28;20032;-85
2021/05/12 00:47:07;;;;;;;1.05;0.60;;;;;;;33.46;15.98;97358.97;5093026;28;20024;-85
2021/05/12 00:49:34;;;;;;;1.35;0.32;;;;;;;33.50;15.97;97353.78;5091588;28;20031;-85
2021/05/12 00:52:01;;;;;;;1.05;0.60;;;;;;;33.35;16.19;97354.03;5093353;28;20471;-85
2021/05/12 00:54:27;;;;;;;1.27;0.70;;;;;;;33.16;17.04;97361.50;5093102;28;20032;-85
2021/05/12 00:56:54;;;;;;;1.50;0.60;;;;;;;32.74;16.99;97346.06;5093293;28;20054;-85
2021/05/12 00:59:29;;;;;;;2.03;1.08;;;;;;;32.79;17.03;97360.84;5093262;28;20036;-85
2021/05/12 01:01:55;;;;;;;0.68;0.60;;;;;;;32.80;17.21;97362.38;5091018;28;20036;-85
2021/05/12 01:04:21;;;;;;;0.60;0.60;;;;;;;32.45;17.09;97349.28;5091722;28;20445;-85
2021/05/12 01:06:47;;;;;;;0.70;0.60;;;;;;;32.24;17.13;97359.22;5092505;28;20443;-85
2021/05/12 01:09:13;;;;;;;0.85;0.60;;;;;;;32.39;17.21;97362.69;5091597;28;20535;-85
2021/05/12 01:11:40;;;;;;;2.05;0.68;;;;;;;32.60;17.16;97358.41;5087868;28;20387;-85
2021/05/12 01:14:06;;;;;;;0.82;0.68;;;;;;;32.84;17.01;97355.16;5091707;28;20063;-85
2021/05/12 01:16:32;;;;;;;1.33;0.60;;;;;;;32.91;17.13;97356.75;5091661;28;20044;-85
2021/05/12 01:18:58;;;;;;;0.73;0.55;;;;;;;32.99;16.30;97352.09;5087979;28;20091;-85
2021/05/12 01:21:24;;;;;;;1.58;0.85;;;;;;;32.92;16.73;97350.53;5088452;28;20111;-85
2021/05/12 01:23:51;;;;;;;3.25;1.02;;;;;;;31.96;17.81;97347.69;5088294;28;20036;-85
2021/05/12 01:26:20;;;;;;;1.48;0.70;;;;;;;31.65;17.92;97352.59;5091328;28;20454;-85
2021/05/12 01:28:49;;;;;;;0.70;0.60;;;;;;;31.90;17.23;97349.66;5090955;28;20028;-85
2021/05/12 01:31:22;;;;;;;1.08;0.70;;;;;;;31.65;18.43;97341.97;5090987;28;20033;-85
2021/05/12 01:33:51;;;;;;;0.75;0.60;;;;;;;31.67;17.80;97347.94;5091085;28;20093;-85
2021/05/12 01:36:17;;;;;;;1.13;0.60;;;;;;;31.89;17.94;97344.50;5087724;28;20509;-85
2021/05/12 01:38:46;;;;;;;1.05;0.50;;;;;;;31.87;17.62;97345.00;5089495;28;20067;-85
2021/05/12 01:41:14;;;;;;;1.15;0.52;;;;;;;31.88;17.79;97337.28;5092872;28;20036;-85
2021/05/12 01:43:41;;;;;;;1.40;0.50;;;;;;;32.08;17.72;97340.81;5089805;28;20034;-85
2021/05/12 01:46:08;;;;;;;1.02;0.50;;;;;;;32.11;17.46;97336.16;5091437;28;20040;-85
2021/05/12 01:48:35;;;;;;;1.17;0.82;;;;;;;31.98;17.74;97339.44;5087979;28;20030;-85
2021/05/12 01:51:02;;;;;;;1.30;0.68;;;;;;;32.01;17.20;97341.28;5092216;28;20035;-85
2021/05/12 01:53:28;;;;;;;0.88;0.70;;;;;;;32.04;17.61;97336.66;5088452;28;20039;-85
2021/05/12 01:55:55;;;;;;;1.92;0.70;;;;;;;32.11;17.54;97335.38;5092778;28;20039;-85
2021/05/12 01:58:22;;;;;;;0.95;0.73;;;;;;;31.56;18.11;97332.88;5088658;28;20372;-85
2021/05/12 02:00:51;;;;;;;2.45;1.00;;;;;;;30.95;19.08;97337.94;5087969;28;20032;-85
2021/05/12 02:03:20;;;;;;;2.55;0.60;;;;;;;31.20;18.57;97334.34;5091989;28;20049;-85
2021/05/12 02:05:48;;;;;;;0.63;0.60;;;;;;;31.47;17.84;97335.88;5091888;28;20041;-85
2021/05/12 02:08:17;;;;;;;0.80;0.65;;;;;;;31.84;17.73;97337.50;5089437;28;20063;-85
2021/05/12 02:10:45;;;;;;;1.10;0.68;;;;;;;31.67;17.80;97342.25;5091263;28;20115;-85
2021/05/12 02:13:13;;;;;;;0.80;0.60;;;;;;;31.55;17.39;97334.16;5091285;28;20391;-85
2021/05/12 02:15:40;;;;;;;0.63;0.52;;;;;;;31.81;17.24;97332.81;5092070;28;20178;-85
2021/05/12 02:18:07;;;;;;;2.50;0.68;;;;;;;31.97;16.99;97335.03;5090544;28;20479;-85
2021/05/12 02:20:35;;;;;;;0.55;0.50;;;;;;;31.68;17.74;97334.53;5087294;28;20079;-85
2021/05/12 02:23:04;;;;;;;2.58;0.63;;;;;;;31.49;17.54;97330.47;5090276;28;20031;-85
2021/05/12 02:25:30;;;;;;;0.60;0.57;;;;;;;31.60;17.69;97331.34;5091778;28;20044;-85
2021/05/12 02:27:57;;;;;;;0.70;0.60;;;;;;;31.51;17.59;97325.13;5089941;28;20479;-85
2021/05/12 02:30:24;;;;;;;0.88;0.70;;;;;;;31.53;18.00;97331.06;5086056;28;20056;-85
2021/05/12 02:32:50;;;;;;;1.50;0.85;;;;;;;31.56;17.93;97324.34;5091122;28;20032;-85
2021/05/12 02:35:18;;;;;;;0.50;0.50;;;;;;;31.71;17.66;97317.28;5089389;28;20028;-84
2021/05/12 02:37:45;;;;;;;0.82;0.52;;;;;;;31.90;17.63;97318.44;5084530;28;20032;-84
2021/05/12 02:40:13;;;;;;;1.95;0.80;;;;;;;31.49;18.25;97311.41;5089029;28;20035;-84
2021/05/12 02:42:40;;;;;;;0.70;0.70;;;;;;;31.03;18.72;97307.84;5089658;28;20031;-84
2021/05/12 02:45:08;;;;;;;1.27;0.80;;;;;;;31.04;18.87;97306.59;5090064;28;20032;-84
2021/05/12 02:47:34;;;;;;;0.88;0.70;;;;;;;30.93;18.93;97310.06;5086655;28;20490;-84
2021/05/12 02:50:01;;;;;;;0.73;0.60;;;;;;;31.17;18.39;97307.75;5091287;28;20479;-84
2021/05/12 02:52:28;;;;;;;0.73;0.73;;;;;;;31.55;17.75;97309.41;5085221;28;20024;-85
2021/05/12 02:54:54;;;;;;;0.52;0.52;;;;;;;31.72;17.69;97318.81;5090367;28;20024;-85
2021/05/12 02:57:22;;;;;;;0.90;0.80;;;;;;;31.17;18.87;97315.47;5090568;28;20032;-85
2021/05/12 02:59:48;;;;;;;1.27;0.75;;;;;;;30.77;19.72;97313.47;5090469;28;20548;-85
2021/05/12 03:02:15;;;;;;;2.28;1.05;;;;;;;30.36;20.07;97307.06;5092179;28;20036;-85
2021/05/12 03:04:41;;;;;;;0.95;0.85;;;;;;;30.20;20.36;97306.81;5094196;28;20110;-85
2021/05/12 03:07:07;;;;;;;4.90;0.80;;;;;;;30.51;19.90;97299.25;5094936;28;20035;-85
2021/05/12 03:09:33;;;;;;;2.08;0.90;;;;;;;30.75;19.59;97301.84;5094503;28;20035;-85
2021/05/12 03:11:59;;;;;;;1.45;0.80;;;;;;;31.00;19.47;97294.66;5094865;28;20024;-85
2021/05/12 03:14:25;;;;;;;1.10;0.70;;;;;;;31.24;18.69;97298.78;5094359;28;20133;-85
2021/05/12 03:16:51;;;;;;;1.70;0.80;;;;;;;31.36;18.74;97286.25;5093035;28;20120;-86
2021/05/12 03:19:17;;;;;;;1.35;0.88;;;;;;;31.26;18.65;97292.59;5089903;28;20399;-85
2021/05/12 03:21:44;;;;;;;2.55;0.95;;;;;;;31.12;18.46;97299.16;5092949;28;20028;-85
2021/05/12 03:24:10;;;;;;;1.40;0.70;;;;;;;31.43;18.15;97290.72;5088316;28;20534;-85
2021/05/12 03:26:36;;;;;;;0.60;0.50;;;;;;;31.81;17.47;97298.00;5094704;28;20103;-85
2021/05/12 03:29:05;;;;;;;1.17;0.65;;;;;;;32.10;17.30;97292.00;5093106;28;20032;-85
2021/05/12 03:31:31;;;;;;;3.55;0.80;;;;;;;32.32;17.65;97291.34;5086781;28;20077;-85
2021/05/12 03:33:57;;;;;;;1.35;0.75;;;;;;;31.66;18.67;97286.00;5094623;28;20032;-86
2021/05/12 03:36:24;;;;;;;1.45;0.80;;;;;;;30.69;19.54;97293.28;5092594;28;20093;-86
2021/05/12 03:38:52;;;;;;;2.83;0.90;;;;;;;30.00;20.30;97294.19;5092548;28;20040;-86
2021/05/12 03:41:18;;;;;;;1.23;0.82;;;;;;;30.20;20.15;97287.75;5092026;28;20046;-86
2021/05/12 03:43:44;;;;;;;0.60;0.50;;;;;;;31.20;18.93;97281.19;5094345;28;20140;-86
2021/05/12 03:46:10;;;;;;;1.85;0.50;;;;;;;32.46;17.89;97273.31;5093735;28;20450;-86
2021/05/12 03:48:36;;;;;;;0.60;0.60;;;;;;;33.33;17.00;97279.75;5088398;28;20499;-86
2021/05/12 03:51:03;;;;;;;0.93;0.65;;;;;;;33.87;16.48;97277.44;5091946;28;20107;-86
2021/05/12 03:53:29;;;;;;;0.77;0.70;;;;;;;34.26;16.99;97281.00;5092582;28;20051;-86
2021/05/12 03:55:55;;;;;;;3.08;0.93;;;;;;;34.12;17.21;97281.31;5091694;28;20028;-86
2021/05/12 03:58:21;;;;;;;3.33;0.95;;;;;;;34.53;16.55;97277.31;5093882;28;20040;-86
2021/05/12 04:00:48;;;;;;;1.10;0.70;;;;;;;34.92;16.61;97287.72;5092003;28;20043;-86
2021/05/12 04:03:14;;;;;;;1.70;0.85;;;;;;;34.70;17.33;97280.09;5092360;28;20510;-86
2021/05/12 04:05:40;;;;;;;1.33;1.20;;;;;;;34.47;17.22;97287.91;5091454;28;20514;-86
2021/05/12 04:08:06;;;;;;;0.93;0.93;;;;;;;34.38;17.56;97285.34;5092468;28;20085;-85
2021/05/12 04:10:33;;;;;;;1.00;0.90;;;;;;;34.35;18.08;97289.28;5091815;28;20429;-86
2021/05/12 04:13:00;;;;;;;1.35;0.90;;;;;;;34.41;17.91;97289.25;5094215;28;20153;-86
2021/05/12 04:15:26;;;;;;;2.60;1.10;;;;;;;34.28;17.65;97283.34;5093284;28;20016;-86
2021/05/12 04:17:52;;;;;;;1.67;0.70;;;;;;;34.32;17.57;97281.75;5092557;28;20106;-85
2021/05/12 04:20:21;;;;;;;0.70;0.70;;;;;;;34.49;17.26;97284.56;5091360;28;20471;-86
2021/05/12 04:22:47;;;;;;;0.85;0.85;;;;;;;34.78;17.17;97280.28;5092868;28;20395;-86
2021/05/12 04:25:16;;;;;;;1.17;0.60;;;;;;;35.29;17.03;97271.69;5092408;28;20032;-85
2021/05/12 04:27:43;;;;;;;2.58;0.60;;;;;;;35.70;16.95;97276.56;5091300;28;20039;-86
2021/05/12 04:30:11;;;;;;;0.88;0.73;;;;;;;36.13;16.88;97282.41;5100952;28;20024;-86
2021/05/12 04:32:38;;;;;;;2.10;0.80;;;;;;;36.01;17.32;97276.78;5090250;28;20063;-86
2021/05/12 04:35:05;;;;;;;1.23;0.75;;;;;;;35.96;17.05;97271.13;5090535;28;20111;-86
2021/05/12 04:37:32;;;;;;;1.02;0.80;;;;;;;36.05;17.34;97270.78;5091860;28;20068;-86
2021/05/12 04:39:58;;;;;;;0.93;0.75;;;;;;;36.06;17.39;97278.03;5088016;28;20039;-86
2021/05/12 04:42:24;;;;;;;0.77;0.77;;;;;;;36.14;17.15;97275.38;5095451;28;20032;-83
2021/05/12 04:44:52;;;;;;;2.20;1.02;;;;;;;35.94;18.04;97276.59;5093281;28;20120;-82
2021/05/12 04:47:19;;;;;;;1.58;1.05;;;;;;;35.97;17.87;97279.19;5085684;28;20093;-85
2021/05/12 04:49:48;;;;;;;1.95;1.23;;;;;;;35.93;17.82;97266.47;5084924;28;20128;-85
2021/05/12 04:52:14;;;;;;;1.77;0.85;;;;;;;35.89;16.95;97271.72;5084007;28;20511;-85
2021/05/12 04:54:40;;;;;;;1.23;0.70;;;;;;;35.99;16.42;97267.22;5080054;28;20039;-86
2021/05/12 04:57:07;;;;;;;1.15;0.75;;;;;;;35.89;16.49;97266.78;5082375;28;20032;-86
2021/05/12 04:59:33;;;;;;;0.60;0.60;;;;;;;35.72;16.82;97265.38;5090455;28;20024;-86
2021/05/12 05:02:00;;;;;;;1.98;0.77;;;;;;;35.58;16.62;97267.31;5088774;28;20467;-86
2021/05/12 05:04:26;;;;;;;0.73;0.57;;;;;;;35.54;17.21;97268.94;5089805;28;20032;-85
2021/05/12 05:06:52;;;;;;;0.77;0.60;;;;;;;35.62;16.98;97256.38;5090392;28;20035;-86
2021/05/12 05:09:19;;;;;;;1.73;0.70;;;;;;;35.47;16.83;97267.41;5090345;28;20471;-86
2021/05/12 05:11:45;;;;;;;2.42;0.60;;;;;;;35.19;16.28;97266.84;5092143;28;20435;-86
2021/05/12 05:14:12;;;;;;;0.65;0.65;;;;;;;35.42;16.72;97266.13;5088200;28;20024;-84
2021/05/12 05:16:38;;;;;;;2.28;0.57;;;;;;;35.38;16.76;97262.03;5090474;28;20036;-85
2021/05/12 05:19:05;;;;;;;2.15;0.70;;;;;;;35.73;17.09;97261.97;5092824;28;20032;-85
2021/05/12 05:21:31;;;;;;;0.60;0.50;;;;;;;36.04;16.91;97261.44;5090231;28;20028;-85
2021/05/12 05:23:58;;;;;;;1.00;0.50;;;;;;;36.27;16.24;97258.34;5090692;28;20042;-86
2021/05/12 05:26:24;;;;;;;1.00;0.52;;;;;;;36.45;16.35;97260.50;5087212;28;20506;-87
2021/05/12 05:28:50;;;;;;;0.98;0.80;;;;;;;36.71;16.10;97257.81;5085369;28;20043;-85
2021/05/12 05:31:16;;;;;;;1.23;0.63;;;;;;;34.69;17.41;97259.34;5091018;28;20438;-85
2021/05/12 05:33:43;;;;;;;0.93;0.55;;;;;;;35.58;17.23;97257.97;5091824;28;20049;-83
2021/05/12 05:36:09;;;;;;;0.88;0.50;;;;;;;35.83;16.99;97257.47;5088720;28;20036;-82
2021/05/12 05:38:35;;;;;;;0.80;0.50;;;;;;;36.06;16.51;97252.31;5091525;28;20111;-82
2021/05/12 05:41:01;;;;;;;1.10;0.88;;;;;;;36.57;16.23;97256.19;5089785;28;20043;-84
2021/05/12 05:43:28;;;;;;;0.93;0.80;;;;;;;36.68;15.76;97253.16;5087946;28;20032;-85
2021/05/12 05:45:55;;;;;;;1.30;0.52;;;;;;;36.82;16.16;97257.66;5080531;28;20067;-85
2021/05/12 05:48:21;;;;;;;1.23;1.00;;;;;;;35.88;16.89;97255.88;5076627;28;20040;-85
2021/05/12 05:50:47;;;;;;;0.90;0.73;;;;;;;35.71;16.51;97253.16;5086754;28;20036;-85
2021/05/12 05:53:18;;;;;;;0.82;0.82;;;;;;;35.32;16.84;97255.56;5092514;28;20031;-84
2021/05/12 05:55:44;;;;;;;1.63;0.50;;;;;;;35.52;17.29;97258.03;5091279;28;20032;-84
2021/05/12 05:58:10;;;;;;;0.70;0.47;;;;;;;36.18;16.62;97252.97;5092312;28;20036;-84
2021/05/12 06:00:36;;;;;;;3.35;0.88;;;;;;;35.48;17.02;97251.03;5092942;28;20476;-84
2021/05/12 06:03:03;;;;;;;1.23;0.50;;;;;;;35.49;16.68;97255.44;5086456;28;20494;-84
2021/05/12 06:05:29;;;;;;;0.47;0.47;;;;;;;35.30;17.60;97258.97;5072354;28;20052;-84
2021/05/12 06:07:55;;;;;;;0.55;0.52;;;;;;;36.67;16.37;97251.59;5092358;28;20104;-84
2021/05/12 06:10:21;;;;;;;0.50;0.50;;;;;;;37.73;14.94;97254.44;5091817;28;20399;-84
2021/05/12 06:12:48;;;;;;;2.08;0.50;;;;;;;38.09;14.10;97251.22;5092848;28;20032;-84
2021/05/12 06:15:20;;;;;;;0.68;0.50;;;;;;;37.77;14.57;97259.84;5087079;28;20498;-84
2021/05/12 06:17:50;;;;;;;0.55;0.55;;;;;;;37.32;14.88;97257.69;5092890;28;20417;-84
2021/05/12 06:20:16;;;;;;;0.60;0.40;;;;;;;36.93;14.37;97251.00;5092411;28;20089;-84
2021/05/12 06:22:42;;;;;;;0.60;0.40;;;;;;;36.48;14.97;97253.69;5091998;28;20057;-84
2021/05/12 06:25:10;;;;;;;0.65;0.52;;;;;;;37.18;16.00;97252.47;5091371;28;20035;-84
2021/05/12 06:27:40;;;;;;;1.13;0.47;;;;;;;37.30;14.72;97246.00;5092933;28;20063;-85
2021/05/12 06:30:07;;;;;;;0.30;0.30;;;;;;;36.86;15.88;97251.59;5091779;28;20424;-84
2021/05/12 06:32:33;;;;;;;0.43;0.35;;;;;;;36.50;15.61;97248.97;5090710;28;20055;-85
2021/05/12 06:34:59;;;;;;;0.55;0.45;;;;;;;36.80;15.79;97251.69;5097475;28;20071;-85
2021/05/12 06:37:25;;;;;;;1.17;0.47;;;;;;;37.16;14.69;97243.63;5095948;28;20035;-85
2021/05/12 06:39:52;;;;;;;0.98;0.47;;;;;;;37.04;15.45;97236.56;5096268;28;20047;-84
2021/05/12 06:42:18;;;;;;;0.80;0.50;;;;;;;37.00;14.97;97236.84;5096755;28;20038;-85
2021/05/12 06:44:44;;;;;;;2.92;0.40;;;;;;;35.71;15.06;97244.59;5096277;28;20053;-85
2021/05/12 06:47:10;;;;;;;0.77;0.30;;;;;;;36.16;17.05;97242.09;5077870;28;20040;-84
2021/05/12 06:49:36;;;;;;;0.47;0.40;;;;;;;37.48;14.88;97233.00;5087755;28;20032;-85
2021/05/12 06:52:03;;;;;;;2.47;0.55;;;;;;;37.91;16.34;97238.50;5090703;28;20365;-85
2021/05/12 06:54:29;;;;;;;0.50;0.40;;;;;;;37.19;15.36;97229.03;5096265;28;20123;-85
2021/05/12 06:56:56;;;;;;;0.75;0.50;;;;;;;37.81;16.01;97231.63;5096644;28;20564;-85
2021/05/12 06:59:22;;;;;;;0.65;0.50;;;;;;;38.54;14.89;97226.81;5094294;28;20550;-85
2021/05/12 07:01:48;;;;;;;0.40;0.40;;;;;;;39.11;14.06;97222.16;5095519;28;20024;-85
2021/05/12 07:04:14;;;;;;;0.35;0.30;;;;;;;39.30;13.95;97222.00;5092456;28;20106;-85
2021/05/12 07:06:40;;;;;;;0.30;0.30;;;;;;;39.42;13.41;97225.38;5096432;28;20066;-84
2021/05/12 07:09:06;;;;;;;0.20;0.20;;;;;;;39.52;13.26;97215.69;5095078;28;20577;-85
2021/05/12 07:11:32;;;;;;;1.17;0.63;;;;;;;39.46;13.50;97220.81;5096370;28;20035;-85
2021/05/12 07:13:58;;;;;;;0.70;0.43;;;;;;;39.11;14.16;97232.88;5094825;28;20046;-85
2021/05/12 07:16:24;;;;;;;2.63;0.77;;;;;;;38.19;16.59;97221.53;5096112;28;20505;-84
2021/05/12 07:18:50;;;;;;;1.75;0.70;;;;;;;36.53;17.49;97221.38;5096358;28;20077;-84
2021/05/12 07:21:16;;;;;;;1.25;0.70;;;;;;;34.95;20.54;97218.19;5096062;28;20071;-84
2021/05/12 07:23:44;;;;;;;1.27;0.70;;;;;;;35.29;19.81;97211.72;5090456;28;20078;-84
2021/05/12 07:26:13;;;;;;;3.58;0.82;;;;;;;34.30;21.95;97218.03;5093685;28;20041;-85
2021/05/12 07:28:41;;;;;;;2.63;0.93;;;;;;;33.22;22.76;97214.31;5085651;28;20455;-84
2021/05/12 07:31:07;;;;;;;2.65;1.25;;;;;;;32.63;22.90;97214.47;5093693;28;20433;-84
2021/05/12 07:33:33;;;;;;;1.92;1.20;;;;;;;32.17;23.76;97208.34;5083384;28;20039;-85
2021/05/12 07:35:59;;;;;;;2.53;1.20;;;;;;;34.10;21.72;97216.28;5077353;28;20181;-85
2021/05/12 07:38:25;;;;;;;1.80;1.10;;;;;;;35.55;20.05;97204.78;5079554;28;20052;-84
2021/05/12 07:40:51;;;;;;;1.15;0.85;;;;;;;36.32;18.80;97203.94;5088585;28;20028;-84
2021/05/12 07:43:17;;;;;;;1.02;0.93;;;;;;;35.21;20.65;97199.34;5083916;28;20360;-84
2021/05/12 07:45:44;;;;;;;2.58;1.10;;;;;;;35.29;20.51;97199.53;5076102;28;20025;-84
2021/05/12 07:48:11;;;;;;;6.00;1.33;;;;;;;34.74;21.68;97200.72;5078767;28;20030;-84
2021/05/12 07:50:39;;;;;;;1.65;1.50;;;;;;;33.24;22.85;97208.88;5079426;28;20036;-84
2021/05/12 07:53:07;;;;;;;3.05;1.73;;;;;;;33.59;22.92;97202.66;5076463;28;20111;-84
2021/05/12 07:55:35;;;;;;;7.10;1.70;;;;;;;33.27;22.90;97205.78;5083916;28;20391;-84
2021/05/12 07:58:02;;;;;;;2.38;1.10;;;;;;;34.99;21.27;97204.41;5093764;28;20020;-84
2021/05/12 08:00:31;;;;;;;1.45;1.00;;;;;;;34.95;21.65;97203.94;5085811;28;20034;-84
2021/05/12 08:02:57;;;;;;;4.20;1.45;;;;;;;34.93;21.50;97200.84;5089107;28;20032;-84
2021/05/12 08:05:24;;;;;;;2.05;1.05;;;;;;;35.18;20.70;97189.00;5095743;28;20046;-84
2021/05/12 08:07:50;;;;;;;1.92;1.20;;;;;;;33.30;23.00;97195.44;5094963;28;20031;-84
2021/05/12 08:10:16;;;;;;;1.60;0.98;;;;;;;32.81;23.31;97191.25;5082740;28;20376;-84
2021/05/12 08:12:42;;;;;;;1.95;1.20;;;;;;;32.33;24.94;97182.84;5084707;28;20032;-84
2021/05/12 08:15:09;;;;;;;3.58;1.10;;;;;;;32.85;23.78;97191.78;5095071;28;20490;-84
2021/05/12 08:17:35;;;;;;;5.85;1.30;;;;;;;32.45;24.22;97181.59;5094914;28;20087;-84
2021/05/12 08:20:02;;;;;;;2.65;1.20;;;;;;;32.83;23.93;97183.00;5093116;28;20095;-84
2021/05/12 08:22:28;;;;;;;1.25;1.15;;;;;;;35.03;20.95;97184.97;5094739;28;20092;-84
2021/05/12 08:24:54;;;;;;;4.68;1.00;;;;;;;35.04;21.16;97178.72;5095364;28;20047;-84
2021/05/12 08:27:21;;;;;;;1.73;1.10;;;;;;;36.03;19.94;97179.88;5094903;28;20035;-84
2021/05/12 08:29:47;;;;;;;0.90;0.70;;;;;;;37.35;19.67;97170.69;5095374;28;20020;-84
2021/05/12 08:32:16;;;;;;;1.30;0.90;;;;;;;37.71;19.50;97170.34;5094878;28;20058;-84
2021/05/12 08:34:42;;;;;;;1.77;0.90;;;;;;;37.31;18.26;97170.25;5095018;28;20028;-84
2021/05/12 08:37:08;;;;;;;3.13;0.75;;;;;;;36.82;20.01;97168.94;5094370;28;20498;-85
2021/05/12 08:39:35;;;;;;;0.70;0.60;;;;;;;37.44;18.75;97168.78;5088175;28;20040;-84
2021/05/12 08:42:02;;;;;;;0.65;0.60;;;;;;;37.80;16.92;97178.50;5072669;28;20111;-84
2021/05/12 08:44:33;;;;;;;1.15;0.60;;;;;;;37.80;17.48;97178.50;5074220;28;20430;-84
2021/05/12 08:47:01;;;;;;;0.80;0.80;;;;;;;36.64;18.85;97161.16;5074214;28;20102;-84
2021/05/12 08:49:28;;;;;;;0.70;0.60;;;;;;;36.91;17.53;97173.47;5091438;28;20034;-84
2021/05/12 08:51:55;;;;;;;0.85;0.40;;;;;;;37.14;18.19;97163.25;5092765;28;20046;-84
2021/05/12 08:54:23;;;;;;;0.95;0.68;;;;;;;37.69;16.99;97165.16;5079366;28;20040;-84
2021/05/12 08:56:49;;;;;;;1.85;0.47;;;;;;;37.26;16.91;97153.94;5075314;28;20032;-84
2021/05/12 08:59:16;;;;;;;1.08;0.60;;;;;;;37.24;15.80;97152.94;5094545;28;20059;-86
2021/05/12 09:01:43;;;;;;;0.40;0.40;;;;;;;37.90;15.71;97150.97;5094657;28;20024;-85
2021/05/12 09:04:09;;;;;;;2.85;0.30;;;;;;;38.24;14.59;97148.94;5094852;28;20028;-85
2021/05/12 09:06:36;;;;;;;0.50;0.43;;;;;;;38.82;15.40;97145.06;5094264;28;20024;-85
2021/05/12 09:09:06;;;;;;;0.43;0.43;;;;;;;37.47;16.10;97150.47;5093930;28;20035;-85
2021/05/12 09:11:33;;;;;;;0.85;0.40;;;;;;;38.08;14.03;97143.56;5092359;28;20039;-85
2021/05/12 09:14:01;;;;;;;1.55;0.60;;;;;;;37.18;14.93;97141.56;5093547;28;20065;-85
2021/05/12 09:16:29;;;;;;;0.43;0.43;;;;;;;37.96;15.12;97143.03;5092722;28;20032;-84
2021/05/12 09:19:11;;;;;;;0.43;0.40;;;;;;;36.49;14.87;97135.09;5092341;28;20043;-83
2021/05/12 09:21:51;;;;;;;1.33;0.40;;;;;;;35.82;16.35;97129.44;5094418;28;20074;-83
2021/05/12 09:24:36;;;;;;;0.40;0.30;;;;;;;35.33;14.16;97134.38;5093968;28;20430;-84
2021/05/12 09:27:05;;;;;;;0.30;0.30;;;;;;;37.91;14.12;97136.09;5094008;28;20063;-83
2021/05/12 09:29:32;;;;;;;0.52;0.30;;;;;;;39.16;13.26;97129.34;5094107;28;20031;-82
2021/05/12 09:32:08;;;;;;;0.43;0.30;;;;;;;39.99;11.98;97117.72;5094392;28;20024;-83
2021/05/12 09:35:03;;;;;;;0.90;0.30;;;;;;;39.34;11.65;97119.78;5079188;28;20044;-83
2021/05/12 09:37:38;;;;;;;0.28;0.28;;;;;;;37.81;12.95;97125.59;5090108;28;20031;-83
2021/05/12 09:40:08;;;;;;;0.20;0.20;;;;;;;38.56;13.70;97125.81;5091439;28;20024;-82
2021/05/12 09:42:36;;;;;;;0.95;0.50;;;;;;;39.02;13.08;97115.63;5084092;28;20028;-82
2021/05/12 09:45:10;;;;;;;0.40;0.30;;;;;;;39.41;12.72;97106.00;5091710;28;20028;-83
2021/05/12 09:47:36;;;;;;;0.30;0.30;;;;;;;39.60;12.57;97110.22;5073850;28;20036;-83
2021/05/12 09:50:17;;;;;;;1.48;0.22;;;;;;;40.14;12.58;97106.34;5076648;28;20387;-83
2021/05/12 09:52:43;;;;;;;;;;;;;;;40.52;11.27;97103.59;5087605;28;20086;-85
2021/05/12 09:55:11;;;;;;;0.40;0.20;;;;;;;40.79;12.24;97104.06;5093839;28;19916;-84
2021/05/12 09:57:56;;;;;;;0.20;0.20;;;;;;;40.90;12.47;97103.72;5093312;28;20036;-84
2021/05/12 10:00:36;;;;;;;0.40;0.30;;;;;;;40.28;11.38;97098.34;5093637;28;20024;-84
2021/05/12 10:03:05;;;;;;;0.20;0.20;;;;;;;40.48;12.03;97097.47;5093908;28;20065;-84
2021/05/12 10:05:53;;;;;;;0.45;0.10;;;;;;;40.86;11.99;97092.59;5093430;28;20047;-84
2021/05/12 10:08:24;;;;;;;0.40;0.35;;;;;;;38.20;14.44;97111.25;5092805;28;20063;-84
2021/05/12 10:10:55;;;;;;;0.63;0.40;;;;;;;37.06;14.67;97103.00;5093262;28;20433;-84
2021/05/12 10:13:21;;;;;;;0.38;0.30;;;;;;;37.98;13.76;97097.38;5093361;28;20529;-86
2021/05/12 10:15:48;;;;;;;1.48;0.20;;;;;;;37.67;13.52;97098.28;5092873;28;20448;-83
2021/05/12 10:18:15;;;;;;;0.32;0.32;;;;;;;38.19;13.79;97106.81;5093066;28;20052;-84
2021/05/12 10:20:41;;;;;;;0.32;0.32;;;;;;;38.91;13.67;97093.69;5093334;28;20024;-84
2021/05/12 10:23:08;;;;;;;1.65;0.30;;;;;;;38.88;15.40;97091.19;5093383;28;20476;-83
2021/05/12 10:25:36;;;;;;;1.20;0.40;;;;;;;37.94;14.81;97096.94;5093095;28;20078;-83
2021/05/12 10:28:03;;;;;;;0.60;0.40;;;;;;;38.58;14.90;97078.03;5093310;28;20034;-84
2021/05/12 10:30:29;;;;;;;0.85;0.57;;;;;;;37.76;15.81;97086.34;5092944;28;20032;-85
2021/05/12 10:32:58;;;;;;;0.50;0.50;;;;;;;37.23;15.43;97080.56;5092780;28;20035;-84
2021/05/12 10:35:38;;;;;;;1.15;0.65;;;;;;;36.78;16.99;97081.88;5092609;28;20049;-84
2021/05/12 10:38:28;;;;;;;0.75;0.57;;;;;;;36.53;18.02;97084.06;5093256;28;20024;-85
2021/05/12 10:40:54;;;;;;;1.02;0.50;;;;;;;35.43;16.48;97067.81;5080420;28;20538;-85
2021/05/12 10:43:30;;;;;;;0.50;0.50;;;;;;;35.36;16.61;97073.34;5079747;28;20434;-84
2021/05/12 10:46:17;;;;;;;0.50;0.50;;;;;;;37.11;15.19;97064.91;5091816;28;20040;-85
2021/05/12 10:48:49;;;;;;;0.68;0.57;;;;;;;36.92;14.84;97060.59;5092498;28;20514;-85
2021/05/12 10:51:26;;;;;;;2.55;0.52;;;;;;;36.34;15.98;97066.16;5089451;28;20032;-85
2021/05/12 10:54:06;;;;;;;0.95;0.50;;;;;;;35.58;15.95;97060.91;5091996;28;20032;-84
2021/05/12 10:56:37;;;;;;;0.75;0.65;;;;;;;36.36;15.31;97041.41;5092654;28;20043;-85
2021/05/12 10:59:10;;;;;;;2.30;0.60;;;;;;;35.13;16.16;97060.59;5093582;28;20422;-84
2021/05/12 11:01:54;;;;;;;0.40;0.40;;;;;;;35.31;16.66;97060.66;5091234;28;20484;-84
2021/05/12 11:04:22;;;;;;;1.05;0.60;;;;;;;36.44;15.82;97053.00;5086854;28;20024;-84
2021/05/12 11:06:52;;;;;;;1.23;0.60;;;;;;;36.94;15.10;97049.38;5089616;28;20036;-84
2021/05/12 11:09:20;;;;;;;0.60;0.40;;;;;;;35.49;16.83;97056.31;5091238;28;20074;-84
2021/05/12 11:11:53;;;;;;;2.20;0.47;;;;;;;35.51;18.19;97053.72;5090392;28;20111;-84
2021/05/12 11:14:32;;;;;;;0.80;0.68;;;;;;;36.67;16.53;97048.47;5088574;28;20056;-84
2021/05/12 11:17:18;;;;;;;1.95;0.52;;;;;;;37.14;14.69;97048.72;5092093;28;20067;-84
2021/05/12 11:19:59;;;;;;;0.50;0.50;;;;;;;37.76;14.91;97046.97;5092761;28;20050;-84
2021/05/12 11:22:30;;;;;;;0.50;0.50;;;;;;;38.01;14.19;97039.72;5095912;28;20031;-84
2021/05/12 11:25:09;;;;;;;0.45;0.45;;;;;;;37.74;14.88;97041.03;5096135;28;20035;-84
2021/05/12 11:32:38;;;;;;;1.27;0.60;;;;;;;37.59;15.47;97040.06;5096135;28;20036;-84
2021/05/12 11:35:08;;;;;;;1.20;0.60;;;;;;;37.24;17.66;97032.66;5094054;28;20057;-84
2021/05/12 11:37:37;;;;;;;0.80;0.50;;;;;;;36.31;17.10;97032.94;5095196;28;20031;-84
2021/05/12 11:40:05;;;;;;;0.80;0.52;;;;;;;37.28;15.90;97031.03;5095031;28;20145;-83
2021/05/12 11:42:34;;;;;;;1.27;0.60;;;;;;;36.38;17.17;97021.66;5096263;28;20027;-83